createdAt,value
2022-12-13T00:02:07.368Z,107.97
2022-12-13T00:04:37.286Z,100.28
2022-12-13T00:07:07.209Z,102.90
2022-12-13T00:09:37.184Z,96.38
2022-12-13T00:12:07.143Z,95.95
2022-12-13T00:14:37.105Z,91.40
2022-12-13T00:17:08.324Z,92.25
2022-12-13T00:19:40.017Z,90.22
2022-12-13T00:22:09.964Z,93.43
2022-12-13T00:24:45.754Z,91.50
2022-12-13T00:27:15.984Z,89.07
2022-12-13T00:29:45.797Z,88.38
2022-12-13T00:32:15.848Z,76.77
2022-12-13T00:34:46.422Z,76.07
2022-12-13T00:37:16.324Z,75.63
2022-12-13T00:39:46.436Z,79.47
2022-12-13T00:42:16.496Z,76.72
2022-12-13T00:44:47.223Z,75.38
2022-12-13T00:47:17.865Z,75.95
2022-12-13T00:49:47.808Z,70.82
2022-12-13T00:52:17.711Z,77.22
2022-12-13T00:54:47.715Z,79.10
2022-12-13T00:57:17.515Z,75.07
2022-12-13T00:59:47.425Z,72.73
2022-12-13T01:02:17.326Z,69.68
2022-12-13T01:04:47.257Z,67.60
2022-12-13T01:07:17.178Z,69.10
2022-12-13T01:09:47.210Z,69.55
2022-12-13T01:12:17.164Z,65.82
2022-12-13T01:14:50.613Z,66.57
2022-12-13T01:17:23.054Z,66.32
2022-12-13T01:19:53.038Z,68.72
2022-12-13T01:22:22.958Z,67.55
2022-12-13T01:24:53.171Z,73.88
2022-12-13T01:27:23.254Z,70.68
2022-12-13T01:29:53.256Z,77.32
2022-12-13T01:32:23.203Z,82.68
2022-12-13T01:34:53.101Z,82.13
2022-12-13T01:37:25.971Z,85.65
2022-12-13T01:39:58.416Z,85.22
2022-12-13T01:42:28.506Z,83.53
2022-12-13T01:45:07.869Z,80.80
2022-12-13T01:47:50.479Z,85.68
2022-12-13T01:50:27.599Z,83.00
2022-12-13T01:53:00.351Z,91.57
2022-12-13T01:55:41.519Z,84.03
2022-12-13T01:58:13.020Z,90.60
2022-12-13T02:00:43.905Z,96.72
2022-12-13T02:06:15.023Z,99.50
2022-12-13T02:08:48.568Z,99.22
2022-12-13T02:11:18.688Z,94.97
2022-12-13T02:13:48.594Z,103.07
2022-12-13T02:16:55.073Z,102.05
2022-12-13T02:19:50.529Z,96.93
2022-12-13T02:26:21.495Z,102.40
2022-12-13T02:29:12.956Z,104.50
2022-12-13T02:32:19.757Z,102.63
2022-12-13T02:35:02.224Z,100.78
2022-12-13T02:37:45.978Z,100.32
2022-12-13T02:40:29.689Z,94.85
2022-12-13T02:43:36.525Z,96.07
2022-12-13T02:46:18.915Z,92.80
2022-12-13T02:48:52.036Z,92.10
2022-12-13T02:51:24.340Z,92.07
2022-12-13T02:53:54.236Z,93.45
2022-12-13T02:56:24.065Z,90.85
2022-12-13T02:58:58.803Z,93.22
2022-12-13T03:01:44.658Z,96.13
2022-12-13T03:05:05.729Z,94.97
2022-12-13T03:10:22.287Z,91.53
2022-12-13T03:13:17.354Z,91.55
2022-12-13T03:15:59.473Z,91.70
2022-12-13T03:18:31.911Z,95.00
2022-12-13T03:21:06.336Z,91.22
2022-12-13T03:23:36.271Z,90.72
2022-12-13T03:26:12.482Z,98.00
2022-12-13T03:28:42.839Z,93.47
2022-12-13T03:31:13.250Z,95.82
2022-12-13T03:33:43.382Z,101.45
2022-12-13T03:36:18.765Z,102.15
2022-12-13T03:38:50.941Z,101.88
2022-12-13T03:41:23.953Z,99.88
2022-12-13T03:43:54.177Z,103.07
2022-12-13T03:46:24.100Z,96.63
2022-12-13T03:48:54.013Z,96.30
2022-12-13T03:51:24.070Z,104.60
2022-12-13T03:53:54.141Z,100.35
2022-12-13T03:56:24.021Z,97.78
2022-12-13T03:58:54.239Z,101.97
2022-12-13T04:01:25.008Z,102.43
2022-12-13T04:03:54.928Z,102.88
2022-12-13T04:06:28.579Z,108.28
2022-12-13T04:09:01.551Z,102.00
2022-12-13T04:11:43.356Z,104.60
2022-12-13T04:14:21.904Z,106.20
2022-12-13T04:16:53.610Z,103.18
2022-12-13T04:19:24.276Z,100.72
2022-12-13T04:21:56.620Z,97.65
2022-12-13T04:24:31.646Z,106.20
2022-12-13T04:27:04.549Z,97.97
2022-12-13T04:29:35.479Z,97.43
2022-12-13T04:32:26.087Z,99.22
2022-12-13T04:35:01.245Z,88.40
2022-12-13T04:37:43.494Z,90.85
2022-12-13T04:40:14.705Z,88.68
2022-12-13T04:42:54.087Z,88.70
2022-12-13T04:45:25.193Z,90.60
2022-12-13T04:47:55.121Z,106.15
2022-12-13T04:50:25.175Z,108.07
2022-12-13T04:52:55.996Z,106.82
2022-12-13T04:55:25.876Z,100.90
2022-12-13T04:57:56.117Z,100.55
2022-12-13T05:00:26.306Z,99.57
2022-12-13T05:02:56.363Z,94.78
2022-12-13T05:05:26.617Z,103.25
2022-12-13T05:07:57.455Z,102.22
2022-12-13T05:10:32.115Z,105.80
2022-12-13T05:13:07.946Z,105.85
2022-12-13T05:15:40.554Z,105.57
2022-12-13T05:18:11.218Z,102.03
2022-12-13T05:20:42.788Z,106.25
2022-12-13T05:23:12.877Z,98.55
2022-12-13T05:25:42.819Z,100.05
2022-12-13T05:28:28.110Z,100.25
2022-12-13T05:31:01.243Z,101.53
2022-12-13T05:33:31.245Z,99.20
2022-12-13T05:36:02.278Z,95.10
2022-12-13T05:38:33.025Z,93.80
2022-12-13T05:41:03.583Z,96.35
2022-12-13T05:43:42.762Z,99.93
2022-12-13T05:46:15.114Z,82.50
2022-12-13T05:48:45.177Z,84.00
2022-12-13T05:51:16.241Z,84.00
2022-12-13T05:53:51.563Z,87.55
2022-12-13T05:56:24.285Z,84.55
2022-12-13T05:58:55.860Z,83.63
2022-12-13T06:01:25.900Z,73.15
2022-12-13T06:03:55.805Z,80.05
2022-12-13T06:06:25.783Z,78.95
2022-12-13T06:08:55.975Z,66.18
2022-12-13T06:11:31.422Z,55.92
2022-12-13T06:14:02.580Z,70.63
2022-12-13T06:16:32.584Z,60.58
2022-12-13T06:19:04.624Z,59.33
2022-12-13T06:21:41.828Z,54.17
2022-12-13T06:24:20.264Z,59.53
2022-12-13T06:26:51.417Z,66.57
2022-12-13T06:29:25.581Z,60.63
2022-12-13T06:32:01.891Z,58.00
2022-12-13T06:34:37.086Z,60.70
2022-12-13T06:37:10.251Z,56.53
2022-12-13T06:39:40.571Z,56.72
2022-12-13T06:42:22.458Z,61.38
2022-12-13T06:44:55.798Z,58.15
2022-12-13T06:47:31.287Z,57.40
2022-12-13T06:50:05.104Z,57.22
2022-12-13T06:52:36.216Z,59.05
2022-12-13T06:55:06.929Z,56.88
2022-12-13T06:57:37.268Z,52.22
2022-12-13T07:00:12.043Z,55.63
2022-12-13T07:02:42.252Z,55.90
2022-12-13T07:07:42.405Z,60.13
2022-12-13T07:10:22.381Z,61.13
2022-12-13T07:12:53.264Z,57.47
2022-12-13T07:17:54.450Z,43.25
2022-12-13T07:20:25.319Z,33.58
2022-12-13T07:22:59.250Z,27.63
2022-12-13T07:25:29.892Z,23.75
2022-12-13T07:28:02.689Z,26.48
2022-12-13T07:30:41.098Z,21.50
2022-12-13T07:33:13.086Z,19.38
2022-12-13T07:35:55.546Z,21.85
2022-12-13T07:38:25.981Z,18.92
2022-12-13T07:43:28.184Z,20.95
2022-12-13T07:46:02.837Z,28.52
2022-12-13T07:48:33.263Z,33.15
2022-12-13T07:51:06.796Z,35.20
2022-12-13T07:53:37.186Z,35.15
2022-12-13T07:56:09.012Z,33.78
2022-12-13T07:58:39.730Z,30.63
2022-12-13T08:01:13.851Z,31.50
2022-12-13T08:03:44.113Z,31.92
2022-12-13T08:08:44.751Z,32.33
2022-12-13T08:13:45.225Z,32.38
2022-12-13T08:16:26.404Z,28.60
2022-12-13T08:19:01.737Z,28.08
2022-12-13T08:21:53.877Z,27.15
2022-12-13T08:24:26.769Z,25.10
2022-12-13T08:26:58.618Z,24.98
2022-12-13T08:29:34.088Z,26.65
2022-12-13T08:32:15.405Z,27.77
2022-12-13T08:34:45.526Z,26.77
2022-12-13T08:37:16.065Z,28.00
2022-12-13T08:39:46.858Z,29.00
2022-12-13T08:42:20.021Z,27.25
2022-12-13T08:44:52.572Z,28.30
2022-12-13T08:47:26.742Z,28.45
2022-12-13T08:50:02.942Z,26.33
2022-12-13T08:52:40.606Z,29.45
2022-12-13T08:58:43.561Z,28.40
2022-12-13T09:01:14.081Z,29.95
2022-12-13T09:03:44.225Z,30.35
2022-12-13T09:06:19.560Z,31.73
2022-12-13T09:08:51.885Z,28.33
2022-12-13T09:11:33.161Z,30.33
2022-12-13T09:14:08.504Z,31.48
2022-12-13T09:16:50.742Z,35.97
2022-12-13T09:19:25.345Z,34.15
2022-12-13T09:22:02.305Z,31.85
2022-12-13T09:24:35.951Z,31.40
2022-12-13T09:27:09.724Z,33.28
2022-12-13T09:29:42.477Z,33.53
2022-12-13T09:32:12.459Z,33.28
2022-12-13T09:34:43.147Z,30.65
2022-12-13T09:37:23.196Z,29.55
2022-12-13T09:39:55.047Z,30.52
2022-12-13T09:42:31.579Z,27.83
2022-12-13T09:45:22.437Z,28.70
2022-12-13T09:48:01.268Z,27.88
2022-12-13T09:50:37.623Z,27.10
2022-12-13T09:53:12.094Z,32.45
2022-12-13T09:56:10.443Z,28.63
2022-12-13T09:58:41.532Z,32.38
2022-12-13T10:01:22.623Z,33.47
2022-12-13T10:03:57.955Z,36.25
2022-12-13T10:06:33.871Z,30.40
2022-12-13T10:09:04.561Z,31.58
2022-12-13T10:11:35.504Z,33.70
2022-12-13T10:14:17.790Z,32.97
2022-12-13T10:16:57.533Z,33.50
2022-12-13T10:19:39.186Z,31.38
2022-12-13T10:22:17.688Z,32.88
2022-12-13T10:24:56.666Z,35.75
2022-12-13T10:27:43.404Z,35.38
2022-12-13T10:30:28.807Z,33.22
2022-12-13T10:33:06.109Z,33.83
2022-12-13T10:35:41.768Z,32.15
2022-12-13T10:38:33.167Z,36.15
2022-12-13T10:41:03.488Z,35.83
2022-12-13T10:46:25.063Z,40.10
2022-12-13T10:48:56.397Z,37.85
2022-12-13T10:51:26.715Z,40.03
2022-12-13T10:54:01.011Z,47.15
2022-12-13T10:56:45.607Z,40.28
2022-12-13T10:59:39.281Z,40.67
2022-12-13T11:02:43.827Z,40.08
2022-12-13T11:05:36.826Z,40.92
2022-12-13T11:08:28.866Z,39.75
2022-12-13T11:11:04.481Z,38.33
2022-12-13T11:13:53.262Z,44.38
2022-12-13T11:16:32.516Z,49.20
2022-12-13T11:19:07.039Z,46.55
2022-12-13T11:21:41.702Z,47.97
2022-12-13T11:24:23.057Z,53.80
2022-12-13T11:27:01.442Z,48.63
2022-12-13T11:29:49.057Z,46.28
2022-12-13T11:32:56.011Z,47.10
2022-12-13T11:35:40.473Z,45.30
2022-12-13T11:38:41.447Z,44.03
2022-12-13T11:41:32.544Z,41.55
2022-12-13T11:44:14.473Z,43.97
2022-12-13T11:46:50.249Z,55.10
2022-12-13T11:49:43.283Z,64.93
2022-12-13T11:52:34.330Z,65.15
2022-12-13T11:55:18.210Z,63.90
2022-12-13T11:58:10.322Z,68.47
2022-12-13T12:00:47.964Z,81.88
2022-12-13T12:03:24.270Z,82.32
2022-12-13T12:06:02.701Z,87.88
2022-12-13T12:08:44.867Z,87.97
2022-12-13T12:11:52.674Z,86.70
2022-12-13T12:14:31.148Z,84.70
2022-12-13T12:17:02.853Z,82.07
2022-12-13T12:19:40.188Z,76.57
2022-12-13T12:22:49.579Z,79.75
2022-12-13T12:25:53.357Z,75.50
2022-12-13T12:28:52.985Z,75.22
2022-12-13T12:31:51.009Z,72.25
2022-12-13T12:34:42.420Z,73.80
2022-12-13T12:37:32.433Z,75.60
2022-12-13T12:41:07.197Z,67.25
2022-12-13T12:43:38.110Z,78.22
2022-12-13T12:47:08.932Z,71.05
2022-12-13T12:50:04.762Z,70.65
2022-12-13T12:52:53.477Z,62.63
2022-12-13T12:55:59.643Z,62.13
2022-12-13T12:58:46.653Z,70.00
2022-12-13T13:01:55.220Z,72.53
2022-12-13T13:04:35.531Z,79.07
2022-12-13T13:07:23.032Z,83.32
2022-12-13T13:09:56.152Z,76.20
2022-12-13T13:12:30.089Z,72.75
2022-12-13T13:15:02.522Z,75.63
2022-12-13T13:17:52.247Z,87.07
2022-12-13T13:20:27.980Z,89.17
2022-12-13T13:23:39.100Z,84.80
2022-12-13T13:26:23.314Z,82.75
2022-12-13T13:28:49.031Z,82.35
2022-12-13T13:31:19.369Z,79.03
2022-12-13T13:33:52.882Z,81.63
2022-12-13T13:36:49.757Z,82.45
2022-12-13T13:39:40.199Z,75.88
2022-12-13T13:42:21.439Z,77.95
2022-12-13T13:45:05.246Z,80.28
2022-12-13T13:47:42.114Z,77.60
2022-12-13T13:50:51.684Z,77.50
2022-12-13T13:54:00.623Z,80.15
2022-12-13T13:56:50.130Z,89.65
2022-12-13T13:59:47.171Z,109.03
2022-12-13T14:02:49.478Z,122.60
2022-12-13T14:05:52.436Z,125.53
2022-12-13T14:08:53.370Z,118.80
2022-12-13T14:11:50.011Z,134.63
2022-12-13T14:14:49.900Z,125.13
2022-12-13T14:17:49.873Z,130.98
2022-12-13T14:20:40.953Z,125.80
2022-12-13T14:23:31.846Z,117.00
2022-12-13T14:26:40.613Z,118.22
2022-12-13T14:29:22.212Z,108.43
2022-12-13T14:31:52.744Z,115.38
2022-12-13T14:37:02.409Z,121.18
2022-12-13T14:39:36.888Z,124.60
2022-12-13T14:42:26.554Z,142.10
2022-12-13T14:44:56.990Z,138.90
2022-12-13T14:49:59.191Z,111.20
2022-12-13T14:52:35.414Z,118.22
2022-12-13T14:55:06.472Z,117.78
2022-12-13T14:57:37.944Z,118.18
2022-12-13T15:00:30.309Z,121.03
2022-12-13T15:03:02.990Z,114.25
2022-12-13T15:05:42.229Z,113.55
2022-12-13T15:08:21.646Z,108.70
2022-12-13T15:10:58.419Z,118.22
2022-12-13T15:13:37.406Z,111.18
2022-12-13T15:16:12.779Z,106.47
2022-12-13T15:18:43.196Z,113.68
2022-12-13T15:21:26.527Z,109.85
2022-12-13T15:23:57.634Z,111.78
2022-12-13T15:26:30.118Z,108.22
2022-12-13T15:29:10.137Z,112.60
2022-12-13T15:31:43.166Z,113.85
2022-12-13T15:34:38.802Z,114.05
2022-12-13T15:37:28.199Z,111.17
2022-12-13T15:40:08.255Z,117.75
2022-12-13T15:42:46.243Z,116.65
2022-12-13T15:45:25.071Z,108.90
2022-12-13T15:47:56.426Z,107.03
2022-12-13T15:50:43.684Z,104.38
2022-12-13T15:53:29.713Z,96.13
2022-12-13T15:56:02.281Z,91.38
2022-12-13T15:58:37.975Z,86.65
2022-12-13T16:01:08.501Z,85.38
2022-12-13T16:03:53.526Z,87.07
2022-12-13T16:06:29.725Z,87.72
2022-12-13T16:09:04.077Z,88.25
2022-12-13T16:11:48.053Z,83.35
2022-12-13T16:14:49.548Z,86.00
2022-12-13T16:17:32.646Z,87.57
2022-12-13T16:20:09.458Z,93.18
2022-12-13T16:22:40.781Z,110.13
2022-12-13T16:25:17.604Z,99.93
2022-12-13T16:27:49.012Z,106.78
2022-12-13T16:30:29.146Z,103.00
2022-12-13T16:35:50.084Z,109.78
2022-12-13T16:38:26.405Z,113.22
2022-12-13T16:41:08.814Z,120.43
2022-12-13T16:43:48.707Z,121.45
2022-12-13T16:47:13.039Z,125.72
2022-12-13T16:49:22.982Z,119.47
2022-12-13T16:51:53.266Z,117.05
2022-12-13T16:54:25.301Z,117.20
2022-12-13T16:56:57.098Z,125.35
2022-12-13T16:59:29.404Z,120.05
2022-12-13T17:01:59.954Z,106.07
2022-12-13T17:04:30.148Z,95.55
2022-12-13T17:07:00.629Z,89.85
2022-12-13T17:09:35.625Z,89.88
2022-12-13T17:12:06.056Z,88.75
2022-12-13T17:14:39.364Z,91.90
2022-12-13T17:17:12.955Z,86.05
2022-12-13T17:19:47.695Z,90.18
2022-12-13T17:22:18.392Z,88.13
2022-12-13T17:24:48.761Z,89.85
2022-12-13T17:27:20.171Z,96.32
2022-12-13T17:29:51.362Z,96.05
2022-12-13T17:32:21.981Z,96.30
2022-12-13T17:37:22.897Z,115.25
2022-12-13T17:39:52.899Z,154.60
2022-12-13T17:42:23.024Z,156.45
2022-12-13T17:44:52.947Z,150.80
2022-12-13T17:47:22.816Z,151.80
2022-12-13T17:49:54.145Z,139.80
2022-12-13T17:52:24.828Z,137.52
2022-12-13T17:54:55.275Z,135.05
2022-12-13T17:57:28.776Z,132.00
2022-12-13T17:59:58.628Z,126.75
2022-12-13T18:02:28.810Z,129.30
2022-12-13T18:04:58.650Z,127.40
2022-12-13T18:07:29.271Z,125.32
2022-12-13T18:12:31.129Z,119.32
2022-12-13T18:15:01.299Z,115.18
2022-12-13T18:18:09.034Z,117.03
2022-12-13T18:20:21.542Z,109.10
2022-12-13T18:22:52.198Z,130.77
2022-12-13T18:25:22.257Z,136.88
2022-12-13T18:27:56.128Z,148.40
2022-12-13T18:30:30.254Z,123.45
2022-12-13T18:33:01.744Z,116.07
2022-12-13T18:35:32.233Z,114.35
2022-12-13T18:38:03.517Z,109.50
2022-12-13T18:40:34.266Z,100.10
2022-12-13T18:45:41.223Z,92.80
2022-12-13T18:48:11.522Z,92.57
2022-12-13T18:50:48.504Z,91.82
2022-12-13T18:53:18.959Z,88.20
2022-12-13T18:55:49.857Z,80.53
2022-12-13T18:58:20.499Z,78.70
2022-12-13T19:00:50.694Z,75.00
2022-12-13T19:03:23.205Z,77.47
2022-12-13T19:05:55.209Z,70.32
2022-12-13T19:08:28.113Z,70.93
2022-12-13T19:11:01.938Z,65.07
2022-12-13T19:13:33.894Z,61.72
2022-12-13T19:16:10.599Z,62.67
2022-12-13T19:18:45.019Z,62.50
2022-12-13T19:21:19.266Z,61.95
2022-12-13T19:23:55.880Z,60.88
2022-12-13T19:26:30.228Z,64.05
2022-12-13T19:29:01.400Z,65.15
2022-12-13T19:31:32.641Z,62.28
2022-12-13T19:34:05.215Z,64.38
2022-12-13T19:36:35.444Z,66.15
2022-12-13T19:39:05.961Z,59.72
2022-12-13T19:41:36.014Z,62.58
2022-12-13T19:44:06.454Z,63.33
2022-12-13T19:46:36.863Z,58.92
2022-12-13T19:49:07.118Z,64.13
2022-12-13T19:51:39.861Z,64.53
2022-12-13T19:54:12.276Z,59.15
2022-12-13T19:56:43.538Z,63.72
2022-12-13T19:59:18.207Z,63.75
2022-12-13T20:01:48.550Z,61.80
2022-12-13T20:04:19.267Z,64.00
2022-12-13T20:09:19.010Z,61.85
2022-12-13T20:11:48.844Z,61.58
2022-12-13T20:14:18.830Z,60.30
2022-12-13T20:16:49.475Z,58.55
2022-12-13T20:19:19.712Z,59.00
2022-12-13T20:21:55.072Z,59.45
2022-12-13T20:24:26.938Z,58.95
2022-12-13T20:26:57.082Z,58.90
2022-12-13T20:29:27.951Z,56.05
2022-12-13T20:31:58.889Z,55.63
2022-12-13T20:34:28.726Z,55.63
2022-12-13T20:36:58.764Z,55.07
2022-12-13T20:39:28.754Z,48.15
2022-12-13T20:41:58.626Z,45.13
2022-12-13T20:44:28.627Z,46.70
2022-12-13T20:46:58.689Z,46.13
2022-12-13T20:49:28.646Z,48.08
2022-12-13T20:51:58.764Z,44.88
2022-12-13T20:54:28.824Z,44.70
2022-12-13T20:56:58.777Z,47.25
2022-12-13T20:59:28.724Z,43.10
2022-12-13T21:01:58.708Z,48.00
2022-12-13T21:04:29.675Z,46.97
2022-12-13T21:07:00.149Z,46.28
2022-12-13T21:09:29.955Z,42.35
2022-12-13T21:11:59.985Z,44.33
2022-12-13T21:14:31.047Z,45.33
2022-12-13T21:17:02.787Z,41.08
2022-12-13T21:19:39.875Z,41.72
2022-12-13T21:22:10.602Z,44.88
2022-12-13T21:24:40.625Z,46.45
2022-12-13T21:27:10.463Z,44.65
2022-12-13T21:29:40.406Z,46.23
2022-12-13T21:32:10.760Z,45.47
2022-12-13T21:34:41.539Z,47.85
2022-12-13T21:39:40.813Z,46.22
2022-12-13T21:42:11.168Z,49.28
2022-12-13T21:44:41.091Z,52.67
2022-12-13T21:47:12.671Z,50.30
2022-12-13T21:49:48.377Z,47.47
2022-12-13T21:52:19.438Z,51.78
2022-12-13T21:54:52.782Z,49.40
2022-12-13T21:57:36.663Z,52.13
2022-12-13T22:02:36.390Z,52.75
2022-12-13T22:05:06.525Z,50.67
2022-12-13T22:07:36.690Z,53.65
2022-12-13T22:10:07.191Z,52.42
2022-12-13T22:12:40.394Z,49.17
2022-12-13T22:15:13.376Z,47.28
2022-12-13T22:17:44.844Z,53.00
2022-12-13T22:20:17.287Z,49.50
2022-12-13T22:22:50.063Z,50.70
2022-12-13T22:25:21.145Z,50.20
2022-12-13T22:27:51.039Z,49.08
2022-12-13T22:30:20.992Z,47.60
2022-12-13T22:32:50.907Z,52.45
2022-12-13T22:35:20.881Z,52.60
2022-12-13T22:37:52.054Z,48.47
2022-12-13T22:40:23.223Z,49.55
2022-12-13T22:42:53.090Z,46.60
2022-12-13T22:45:22.920Z,48.33
2022-12-13T22:47:53.013Z,49.13
2022-12-13T22:50:22.794Z,49.03
2022-12-13T22:52:52.803Z,42.53
2022-12-13T22:55:23.574Z,43.92
2022-12-13T23:00:23.486Z,44.92
2022-12-13T23:02:56.188Z,44.05
2022-12-13T23:05:26.220Z,45.33
2022-12-13T23:07:56.028Z,45.58
2022-12-13T23:10:41.076Z,46.03
2022-12-13T23:13:16.177Z,47.88
2022-12-13T23:15:49.335Z,46.95
2022-12-13T23:18:19.534Z,41.70
2022-12-13T23:20:49.765Z,42.43
2022-12-13T23:23:19.692Z,47.25
2022-12-13T23:25:49.581Z,45.28
2022-12-13T23:28:19.661Z,45.80
2022-12-13T23:30:49.667Z,43.88
2022-12-13T23:33:19.640Z,41.97
2022-12-13T23:35:59.033Z,43.47
2022-12-13T23:38:29.786Z,45.13
2022-12-13T23:43:45.848Z,36.50
2022-12-13T23:46:21.527Z,38.05
2022-12-13T23:48:51.756Z,39.50
2022-12-13T23:51:22.466Z,40.45
2022-12-13T23:53:52.417Z,43.33
2022-12-13T23:56:22.762Z,41.58
2022-12-13T23:58:53.264Z,41.20
